DAL5311 UACC-UTDD
Flight info
| Callsign | DAL5311 |
|---|---|
| Flight time | 1h 57m |
| Altitude | 40000 |
| Route | KOKON1B KOKON M75 AMIGU P178 TIMKA/K0865F390 M168 GENDI DCT DODUR DCT PF/K0869F400 A103 SX PUGU1N |
| Aircraft | MD11/H-SDE1E2E3FGHIJ2J3J4J5M1RWXY/LB1D1 |
Departure
| Time | 2026-04-26 12:35 |
|---|---|
| Airport | Nursultan Nazarbayev International Airport (UACC) |
Arrival
| Time | 2026-04-26 14:32 |
|---|---|
| Airport | Dushanbe International Airport (UTDD) |
| Time | Latitude | Longitude | Altitude | Speed | Heading |
|---|---|---|---|---|---|
| 2026-04-26 12:10 | 51.02604 | 71.46084 | 1175 ft | 0 kts | 358° |
| 2026-04-26 12:20 | 51.02603 | 71.46084 | 1161 ft | 1 kts | 358° |
| 2026-04-26 12:20 | 51.02584 | 71.46084 | 1153 ft | 4 kts | 32° |
| 2026-04-26 12:21 | 51.02575 | 71.46074 | 1174 ft | 0 kts | 61° |
| 2026-04-26 12:25 | 51.02576 | 71.46077 | 1175 ft | 1 kts | 63° |
| 2026-04-26 12:25 | 51.02577 | 71.46112 | 1172 ft | 7 kts | 90° |
| 2026-04-26 12:25 | 51.02577 | 71.46182 | 1171 ft | 0 kts | 89° |
| 2026-04-26 12:26 | 51.02576 | 71.46186 | 1171 ft | 0 kts | 98° |
| 2026-04-26 12:26 | 51.02572 | 71.46194 | 1170 ft | 2 kts | 119° |
| 2026-04-26 12:26 | 51.02543 | 71.46207 | 1171 ft | 5 kts | 186° |
| 2026-04-26 12:26 | 51.02492 | 71.46187 | 1172 ft | 11 kts | 193° |
| 2026-04-26 12:27 | 51.02408 | 71.46173 | 1172 ft | 12 kts | 166° |
| 2026-04-26 12:27 | 51.02359 | 71.46274 | 1171 ft | 12 kts | 96° |
| 2026-04-26 12:27 | 51.02401 | 71.46378 | 1172 ft | 13 kts | 46° |
| 2026-04-26 12:27 | 51.02473 | 71.46492 | 1172 ft | 17 kts | 45° |
| 2026-04-26 12:28 | 51.02562 | 71.46634 | 1173 ft | 20 kts | 45° |
| 2026-04-26 12:28 | 51.02665 | 71.46796 | 1172 ft | 22 kts | 45° |
| 2026-04-26 12:28 | 51.02780 | 71.46978 | 1173 ft | 24 kts | 45° |
| 2026-04-26 12:28 | 51.02906 | 71.47178 | 1170 ft | 27 kts | 45° |
| 2026-04-26 12:29 | 51.03043 | 71.47393 | 1171 ft | 28 kts | 44° |
| 2026-04-26 12:29 | 51.03175 | 71.47597 | 1172 ft | 25 kts | 44° |
| 2026-04-26 12:29 | 51.03371 | 71.47902 | 1171 ft | 14 kts | 45° |
| 2026-04-26 12:30 | 51.03424 | 71.48018 | 1167 ft | 10 kts | 74° |
| 2026-04-26 12:30 | 51.03428 | 71.48072 | 1171 ft | 0 kts | 85° |
| 2026-04-26 12:31 | 51.03428 | 71.48082 | 1170 ft | 3 kts | 86° |
| 2026-04-26 12:31 | 51.03428 | 71.48128 | 1172 ft | 6 kts | 89° |
| 2026-04-26 12:32 | 51.03429 | 71.48149 | 1172 ft | 0 kts | 89° |
| 2026-04-26 12:33 | 51.03429 | 71.48150 | 1172 ft | 1 kts | 89° |
| 2026-04-26 12:33 | 51.03429 | 71.48192 | 1172 ft | 7 kts | 89° |
| 2026-04-26 12:33 | 51.03418 | 71.48275 | 1169 ft | 8 kts | 117° |
| 2026-04-26 12:34 | 51.03373 | 71.48323 | 1169 ft | 8 kts | 177° |
| 2026-04-26 12:34 | 51.03323 | 71.48278 | 1171 ft | 9 kts | 221° |
| 2026-04-26 12:34 | 51.03318 | 71.48272 | 1171 ft | 0 kts | 221° |
| 2026-04-26 12:34 | 51.03318 | 71.48271 | 1171 ft | 1 kts | 221° |
| 2026-04-26 12:35 | 51.03163 | 71.48032 | 1172 ft | 77 kts | 225° |
| 2026-04-26 12:35 | 51.02570 | 71.47091 | 1174 ft | 160 kts | 228° |
| 2026-04-26 12:35 | 51.01728 | 71.45778 | 1880 ft | 171 kts | 224° |
| 2026-04-26 12:35 | 51.00781 | 71.44633 | 2889 ft | 172 kts | 219° |
| 2026-04-26 12:36 | 50.99838 | 71.43586 | 3971 ft | 156 kts | 230° |
| 2026-04-26 12:36 | 50.99082 | 71.42323 | 4734 ft | 172 kts | 237° |
| 2026-04-26 12:36 | 50.98212 | 71.40771 | 5149 ft | 199 kts | 235° |
| 2026-04-26 12:36 | 50.97248 | 71.39144 | 5920 ft | 205 kts | 233° |
| 2026-04-26 12:37 | 50.96251 | 71.37504 | 6720 ft | 214 kts | 233° |
| 2026-04-26 12:37 | 50.95111 | 71.35622 | 7064 ft | 252 kts | 232° |
| 2026-04-26 12:37 | 50.93865 | 71.33621 | 8147 ft | 257 kts | 230° |
| 2026-04-26 12:37 | 50.92583 | 71.31600 | 9286 ft | 262 kts | 229° |
| 2026-04-26 12:38 | 50.91277 | 71.29558 | 10275 ft | 270 kts | 229° |
| 2026-04-26 12:38 | 50.89854 | 71.27324 | 10485 ft | 307 kts | 229° |
| 2026-04-26 12:38 | 50.88257 | 71.24825 | 10861 ft | 332 kts | 228° |
| 2026-04-26 12:38 | 50.86598 | 71.22258 | 11974 ft | 334 kts | 227° |
| 2026-04-26 12:39 | 50.84924 | 71.19679 | 13084 ft | 337 kts | 227° |
| 2026-04-26 12:39 | 50.83236 | 71.17080 | 14099 ft | 340 kts | 227° |
| 2026-04-26 12:39 | 50.81537 | 71.14464 | 14987 ft | 344 kts | 227° |
| 2026-04-26 12:39 | 50.79835 | 71.11851 | 15843 ft | 347 kts | 227° |
| 2026-04-26 12:40 | 50.78093 | 71.09179 | 16704 ft | 351 kts | 227° |
| 2026-04-26 12:40 | 50.76333 | 71.06481 | 17543 ft | 354 kts | 227° |
| 2026-04-26 12:40 | 50.74555 | 71.03756 | 18361 ft | 358 kts | 227° |
| 2026-04-26 12:40 | 50.72759 | 71.01005 | 19074 ft | 361 kts | 227° |
| 2026-04-26 12:41 | 50.70944 | 70.98272 | 19798 ft | 361 kts | 224° |
| 2026-04-26 12:41 | 50.68965 | 70.95784 | 20444 ft | 368 kts | 220° |
| 2026-04-26 12:41 | 50.66849 | 70.93506 | 21095 ft | 371 kts | 217° |
| 2026-04-26 12:41 | 50.64661 | 70.91299 | 21785 ft | 374 kts | 216° |
| 2026-04-26 12:42 | 50.62454 | 70.89115 | 22482 ft | 377 kts | 216° |
| 2026-04-26 12:42 | 50.60230 | 70.86916 | 23182 ft | 379 kts | 216° |
| 2026-04-26 12:42 | 50.57989 | 70.84690 | 23854 ft | 382 kts | 216° |
| 2026-04-26 12:42 | 50.55739 | 70.82447 | 24452 ft | 384 kts | 216° |
| 2026-04-26 12:43 | 50.53475 | 70.80183 | 25058 ft | 387 kts | 216° |
| 2026-04-26 12:43 | 50.51192 | 70.77898 | 25672 ft | 390 kts | 216° |
| 2026-04-26 12:43 | 50.48893 | 70.75597 | 26292 ft | 393 kts | 216° |
| 2026-04-26 12:43 | 50.46582 | 70.73285 | 26896 ft | 397 kts | 216° |
| 2026-04-26 12:44 | 50.44249 | 70.70953 | 27505 ft | 400 kts | 216° |
| 2026-04-26 12:44 | 50.41891 | 70.68599 | 28092 ft | 402 kts | 216° |
| 2026-04-26 12:44 | 50.39522 | 70.66238 | 28735 ft | 405 kts | 216° |
| 2026-04-26 12:44 | 50.37138 | 70.63863 | 29313 ft | 408 kts | 215° |
| 2026-04-26 12:45 | 50.34731 | 70.61468 | 29884 ft | 412 kts | 215° |
| 2026-04-26 12:45 | 50.32303 | 70.59056 | 30381 ft | 415 kts | 215° |
| 2026-04-26 12:45 | 50.29857 | 70.56628 | 30870 ft | 417 kts | 215° |
| 2026-04-26 12:45 | 50.27404 | 70.54198 | 31409 ft | 418 kts | 215° |
| 2026-04-26 12:46 | 50.24947 | 70.51767 | 31934 ft | 418 kts | 215° |
| 2026-04-26 12:46 | 50.22498 | 70.49347 | 32446 ft | 419 kts | 215° |
| 2026-04-26 12:46 | 50.20036 | 70.46917 | 32950 ft | 419 kts | 215° |
| 2026-04-26 12:46 | 50.17575 | 70.44467 | 33424 ft | 419 kts | 216° |
| 2026-04-26 12:47 | 50.15173 | 70.41898 | 33937 ft | 419 kts | 218° |
| 2026-04-26 12:47 | 50.12817 | 70.39223 | 34328 ft | 419 kts | 219° |
| 2026-04-26 12:47 | 50.10482 | 70.36498 | 34732 ft | 418 kts | 220° |
| 2026-04-26 12:47 | 50.08159 | 70.33762 | 35125 ft | 418 kts | 219° |
| 2026-04-26 12:48 | 50.05842 | 70.31034 | 35520 ft | 418 kts | 219° |
| 2026-04-26 12:48 | 50.03518 | 70.28313 | 35908 ft | 418 kts | 219° |
| 2026-04-26 12:48 | 50.01189 | 70.25604 | 36282 ft | 418 kts | 219° |
| 2026-04-26 12:48 | 49.98859 | 70.22904 | 36649 ft | 418 kts | 219° |
| 2026-04-26 12:49 | 49.96527 | 70.20207 | 37008 ft | 417 kts | 218° |
| 2026-04-26 12:49 | 49.94208 | 70.17529 | 37357 ft | 417 kts | 218° |
| 2026-04-26 12:49 | 49.91876 | 70.14840 | 37700 ft | 417 kts | 218° |
| 2026-04-26 12:49 | 49.89546 | 70.12155 | 38036 ft | 417 kts | 218° |
| 2026-04-26 12:50 | 49.87217 | 70.09475 | 38324 ft | 418 kts | 218° |
| 2026-04-26 12:50 | 49.84907 | 70.06819 | 38601 ft | 418 kts | 218° |
| 2026-04-26 12:50 | 49.82538 | 70.04099 | 38870 ft | 419 kts | 218° |
| 2026-04-26 12:50 | 49.80195 | 70.01410 | 39077 ft | 419 kts | 218° |
| 2026-04-26 12:51 | 49.77877 | 69.98755 | 39273 ft | 420 kts | 218° |
| 2026-04-26 12:51 | 49.75523 | 69.96061 | 39470 ft | 421 kts | 218° |
| 2026-04-26 12:51 | 49.73133 | 69.93330 | 39654 ft | 422 kts | 218° |
| 2026-04-26 12:51 | 49.70770 | 69.90633 | 39857 ft | 423 kts | 218° |
| 2026-04-26 12:52 | 49.68404 | 69.87937 | 40036 ft | 424 kts | 218° |
| 2026-04-26 12:52 | 49.63667 | 69.82548 | 40090 ft | 422 kts | 218° |
| 2026-04-26 12:53 | 49.58942 | 69.77187 | 40097 ft | 423 kts | 218° |
| 2026-04-26 12:53 | 49.54206 | 69.71824 | 40075 ft | 423 kts | 218° |
| 2026-04-26 12:54 | 49.49509 | 69.66520 | 40098 ft | 421 kts | 218° |
| 2026-04-26 12:54 | 49.44786 | 69.61199 | 40102 ft | 421 kts | 218° |
| 2026-04-26 12:55 | 49.40060 | 69.55888 | 40102 ft | 420 kts | 218° |
| 2026-04-26 12:55 | 49.35336 | 69.50569 | 40100 ft | 421 kts | 218° |
| 2026-04-26 12:56 | 49.30618 | 69.45211 | 40104 ft | 422 kts | 217° |
| 2026-04-26 12:56 | 49.25351 | 69.41209 | 40104 ft | 429 kts | 198° |
| 2026-04-26 12:57 | 49.19444 | 69.39593 | 40105 ft | 433 kts | 192° |
| 2026-04-26 12:57 | 49.13473 | 69.38394 | 40108 ft | 433 kts | 192° |
| 2026-04-26 12:58 | 49.04551 | 69.36335 | 40109 ft | 432 kts | 193° |
| 2026-04-26 12:58 | 48.98625 | 69.34872 | 40101 ft | 431 kts | 193° |
| 2026-04-26 12:59 | 48.92689 | 69.33399 | 40112 ft | 432 kts | 193° |
| 2026-04-26 12:59 | 48.86743 | 69.31931 | 40114 ft | 432 kts | 193° |
| 2026-04-26 13:00 | 48.80797 | 69.30468 | 40117 ft | 433 kts | 193° |
| 2026-04-26 13:00 | 48.74858 | 69.29011 | 40105 ft | 433 kts | 193° |
| 2026-04-26 13:01 | 48.69930 | 69.27805 | 40121 ft | 432 kts | 193° |
| 2026-04-26 13:01 | 48.63990 | 69.26354 | 40121 ft | 432 kts | 193° |
| 2026-04-26 13:02 | 48.58053 | 69.24907 | 40122 ft | 432 kts | 193° |
| 2026-04-26 13:02 | 48.52122 | 69.23465 | 40120 ft | 432 kts | 193° |
| 2026-04-26 13:03 | 48.46176 | 69.22023 | 40118 ft | 432 kts | 193° |
| 2026-04-26 13:03 | 48.40230 | 69.20591 | 40127 ft | 432 kts | 193° |
| 2026-04-26 13:04 | 48.34279 | 69.19163 | 40123 ft | 433 kts | 193° |
| 2026-04-26 13:04 | 48.28326 | 69.17731 | 40125 ft | 433 kts | 193° |
| 2026-04-26 13:05 | 48.22389 | 69.16305 | 40125 ft | 432 kts | 193° |
| 2026-04-26 13:05 | 48.16455 | 69.14881 | 40127 ft | 432 kts | 193° |
| 2026-04-26 13:06 | 48.10524 | 69.13461 | 40130 ft | 432 kts | 193° |
| 2026-04-26 13:06 | 48.04581 | 69.12041 | 40136 ft | 433 kts | 193° |
| 2026-04-26 13:07 | 47.98637 | 69.10625 | 40131 ft | 432 kts | 193° |
| 2026-04-26 13:07 | 47.92731 | 69.09223 | 40132 ft | 432 kts | 193° |
| 2026-04-26 13:08 | 47.86786 | 69.07813 | 40132 ft | 433 kts | 193° |
| 2026-04-26 13:08 | 47.80821 | 69.06400 | 40133 ft | 438 kts | 193° |
| 2026-04-26 13:09 | 47.74757 | 69.04965 | 40131 ft | 444 kts | 194° |
| 2026-04-26 13:09 | 47.68633 | 69.03524 | 40132 ft | 446 kts | 194° |
| 2026-04-26 13:10 | 47.62498 | 69.02087 | 40135 ft | 446 kts | 193° |
| 2026-04-26 13:10 | 47.56351 | 69.00656 | 40120 ft | 447 kts | 194° |
| 2026-04-26 13:11 | 47.50213 | 68.99227 | 40135 ft | 446 kts | 194° |
| 2026-04-26 13:11 | 47.44078 | 68.97796 | 40137 ft | 446 kts | 194° |
| 2026-04-26 13:12 | 47.37948 | 68.96368 | 40135 ft | 447 kts | 194° |
| 2026-04-26 13:12 | 47.31808 | 68.94941 | 40139 ft | 447 kts | 194° |
| 2026-04-26 13:13 | 47.25672 | 68.93518 | 40136 ft | 447 kts | 194° |
| 2026-04-26 13:13 | 47.19564 | 68.92105 | 40137 ft | 447 kts | 194° |
| 2026-04-26 13:14 | 47.13420 | 68.90687 | 40141 ft | 448 kts | 194° |
| 2026-04-26 13:14 | 47.07267 | 68.89270 | 40138 ft | 447 kts | 194° |
| 2026-04-26 13:15 | 47.01123 | 68.87860 | 40139 ft | 447 kts | 194° |
| 2026-04-26 13:15 | 46.94983 | 68.86452 | 40141 ft | 447 kts | 194° |
| 2026-04-26 13:16 | 46.88842 | 68.85048 | 40141 ft | 447 kts | 194° |
| 2026-04-26 13:16 | 46.82716 | 68.83652 | 40130 ft | 445 kts | 194° |
| 2026-04-26 13:17 | 46.73531 | 68.81570 | 40135 ft | 445 kts | 194° |
| 2026-04-26 13:18 | 46.64384 | 68.79499 | 40124 ft | 445 kts | 194° |
| 2026-04-26 13:19 | 46.55229 | 68.77427 | 40139 ft | 444 kts | 194° |
| 2026-04-26 13:19 | 46.49127 | 68.76048 | 40137 ft | 444 kts | 194° |
| 2026-04-26 13:20 | 46.43027 | 68.74673 | 40140 ft | 444 kts | 194° |
| 2026-04-26 13:20 | 46.36934 | 68.73304 | 40136 ft | 443 kts | 194° |
| 2026-04-26 13:21 | 46.30863 | 68.71942 | 40147 ft | 442 kts | 194° |
| 2026-04-26 13:21 | 46.24772 | 68.70578 | 40143 ft | 443 kts | 194° |
| 2026-04-26 13:22 | 46.18674 | 68.69217 | 40126 ft | 443 kts | 194° |
| 2026-04-26 13:22 | 46.12590 | 68.67863 | 40145 ft | 442 kts | 194° |
| 2026-04-26 13:23 | 46.06510 | 68.66513 | 40144 ft | 442 kts | 194° |
| 2026-04-26 13:23 | 46.00427 | 68.65164 | 40142 ft | 442 kts | 194° |
| 2026-04-26 13:24 | 45.94349 | 68.63818 | 40143 ft | 442 kts | 194° |
| 2026-04-26 13:24 | 45.88276 | 68.62466 | 40150 ft | 442 kts | 194° |
| 2026-04-26 13:25 | 45.82199 | 68.61108 | 40146 ft | 442 kts | 194° |
| 2026-04-26 13:25 | 45.76163 | 68.59762 | 40149 ft | 442 kts | 194° |
| 2026-04-26 13:26 | 45.70088 | 68.58426 | 40140 ft | 442 kts | 194° |
| 2026-04-26 13:26 | 45.64007 | 68.57105 | 40146 ft | 442 kts | 194° |
| 2026-04-26 13:27 | 45.57930 | 68.55789 | 40159 ft | 442 kts | 194° |
| 2026-04-26 13:27 | 45.51851 | 68.54473 | 40145 ft | 442 kts | 194° |
| 2026-04-26 13:28 | 45.45769 | 68.53159 | 40161 ft | 442 kts | 194° |
| 2026-04-26 13:28 | 45.39676 | 68.51845 | 40158 ft | 442 kts | 194° |
| 2026-04-26 13:29 | 45.33836 | 68.50589 | 40153 ft | 442 kts | 194° |
| 2026-04-26 13:29 | 45.27751 | 68.49283 | 40154 ft | 442 kts | 194° |
| 2026-04-26 13:30 | 45.21665 | 68.47979 | 40157 ft | 442 kts | 194° |
| 2026-04-26 13:30 | 45.15579 | 68.46678 | 40159 ft | 442 kts | 194° |
| 2026-04-26 13:31 | 45.09504 | 68.45382 | 40167 ft | 442 kts | 194° |
| 2026-04-26 13:31 | 45.03409 | 68.44085 | 40163 ft | 442 kts | 194° |
| 2026-04-26 13:32 | 44.97325 | 68.42793 | 40170 ft | 442 kts | 194° |
| 2026-04-26 13:32 | 44.91239 | 68.41504 | 40170 ft | 442 kts | 194° |
| 2026-04-26 13:33 | 44.85145 | 68.40216 | 40163 ft | 443 kts | 194° |
| 2026-04-26 13:33 | 44.79052 | 68.38925 | 40173 ft | 443 kts | 194° |
| 2026-04-26 13:34 | 44.72970 | 68.37636 | 40175 ft | 443 kts | 194° |
| 2026-04-26 13:34 | 44.66913 | 68.36355 | 40148 ft | 443 kts | 194° |
| 2026-04-26 13:35 | 44.60813 | 68.35067 | 40173 ft | 443 kts | 194° |
| 2026-04-26 13:35 | 44.54708 | 68.33780 | 40174 ft | 445 kts | 194° |
| 2026-04-26 13:36 | 44.48553 | 68.32483 | 40177 ft | 448 kts | 194° |
| 2026-04-26 13:36 | 44.42367 | 68.31185 | 40171 ft | 450 kts | 194° |
| 2026-04-26 13:37 | 44.36167 | 68.29889 | 40173 ft | 451 kts | 194° |
| 2026-04-26 13:37 | 44.29961 | 68.28594 | 40178 ft | 451 kts | 194° |
| 2026-04-26 13:38 | 44.23763 | 68.27303 | 40175 ft | 451 kts | 194° |
| 2026-04-26 13:38 | 44.17560 | 68.26014 | 40178 ft | 451 kts | 194° |
| 2026-04-26 13:39 | 44.11251 | 68.25505 | 40179 ft | 460 kts | 183° |
| 2026-04-26 13:39 | 44.04837 | 68.26361 | 40150 ft | 464 kts | 179° |
| 2026-04-26 13:40 | 43.98430 | 68.27414 | 40172 ft | 464 kts | 180° |
| 2026-04-26 13:40 | 43.92007 | 68.28363 | 40171 ft | 463 kts | 180° |
| 2026-04-26 13:41 | 43.85590 | 68.29243 | 40152 ft | 463 kts | 180° |
| 2026-04-26 13:41 | 43.79217 | 68.30100 | 40163 ft | 463 kts | 180° |
| 2026-04-26 13:42 | 43.72800 | 68.30964 | 40155 ft | 463 kts | 180° |
| 2026-04-26 13:42 | 43.66406 | 68.31827 | 40135 ft | 462 kts | 180° |
| 2026-04-26 13:43 | 43.60003 | 68.32686 | 40153 ft | 463 kts | 180° |
| 2026-04-26 13:43 | 43.53592 | 68.33544 | 40143 ft | 462 kts | 180° |
| 2026-04-26 13:44 | 43.47187 | 68.34402 | 40126 ft | 463 kts | 180° |
| 2026-04-26 13:44 | 43.40769 | 68.35260 | 40137 ft | 463 kts | 180° |
| 2026-04-26 13:45 | 43.34350 | 68.36117 | 40135 ft | 463 kts | 180° |
| 2026-04-26 13:45 | 43.27934 | 68.37130 | 40121 ft | 466 kts | 178° |
| 2026-04-26 13:46 | 43.21521 | 68.38580 | 40134 ft | 468 kts | 176° |
| 2026-04-26 13:46 | 43.16206 | 68.39858 | 40132 ft | 468 kts | 176° |
| 2026-04-26 13:47 | 43.09794 | 68.41374 | 40134 ft | 467 kts | 176° |
| 2026-04-26 13:47 | 43.03381 | 68.42861 | 40132 ft | 467 kts | 176° |
| 2026-04-26 13:48 | 42.96968 | 68.44336 | 40133 ft | 467 kts | 176° |
| 2026-04-26 13:48 | 42.90562 | 68.45806 | 40124 ft | 467 kts | 176° |
| 2026-04-26 13:49 | 42.84139 | 68.47278 | 40129 ft | 468 kts | 176° |
| 2026-04-26 13:49 | 42.77707 | 68.48750 | 40127 ft | 468 kts | 176° |
| 2026-04-26 13:50 | 42.71319 | 68.50210 | 40130 ft | 469 kts | 176° |
| 2026-04-26 13:50 | 42.64874 | 68.51678 | 40132 ft | 470 kts | 176° |
| 2026-04-26 13:51 | 42.58443 | 68.53141 | 40133 ft | 470 kts | 176° |
| 2026-04-26 13:51 | 42.51990 | 68.54605 | 40131 ft | 471 kts | 176° |
| 2026-04-26 13:52 | 42.45509 | 68.56069 | 40135 ft | 471 kts | 176° |
| 2026-04-26 13:52 | 42.39039 | 68.57528 | 40133 ft | 472 kts | 176° |
| 2026-04-26 13:53 | 42.32560 | 68.58990 | 40128 ft | 472 kts | 176° |
| 2026-04-26 13:53 | 42.26126 | 68.60442 | 40133 ft | 472 kts | 176° |
| 2026-04-26 13:54 | 42.19647 | 68.61901 | 40134 ft | 472 kts | 176° |
| 2026-04-26 13:54 | 42.13172 | 68.63356 | 40131 ft | 472 kts | 176° |
| 2026-04-26 13:55 | 42.04518 | 68.65296 | 40129 ft | 472 kts | 176° |
| 2026-04-26 13:56 | 41.93756 | 68.67702 | 40130 ft | 471 kts | 176° |
| 2026-04-26 13:56 | 41.87284 | 68.69144 | 40127 ft | 471 kts | 176° |
| 2026-04-26 13:57 | 41.80820 | 68.70581 | 40111 ft | 471 kts | 176° |
| 2026-04-26 13:57 | 41.74353 | 68.72016 | 40123 ft | 471 kts | 176° |
| 2026-04-26 13:58 | 41.67882 | 68.73450 | 40121 ft | 471 kts | 176° |
| 2026-04-26 13:58 | 41.61420 | 68.74883 | 40092 ft | 471 kts | 176° |
| 2026-04-26 13:59 | 41.54967 | 68.76322 | 40112 ft | 471 kts | 176° |
| 2026-04-26 13:59 | 41.48513 | 68.77764 | 40110 ft | 471 kts | 176° |
| 2026-04-26 14:00 | 41.35597 | 68.80411 | 40107 ft | 467 kts | 180° |
| 2026-04-26 14:01 | 41.29133 | 68.81146 | 40108 ft | 466 kts | 181° |
| 2026-04-26 14:01 | 41.22670 | 68.81804 | 40106 ft | 466 kts | 181° |
| 2026-04-26 14:02 | 41.16205 | 68.82497 | 40105 ft | 466 kts | 181° |
| 2026-04-26 14:02 | 41.09737 | 68.83212 | 40105 ft | 466 kts | 180° |
| 2026-04-26 14:03 | 41.03269 | 68.83931 | 40090 ft | 466 kts | 181° |
| 2026-04-26 14:03 | 40.96822 | 68.84646 | 40109 ft | 466 kts | 181° |
| 2026-04-26 14:04 | 40.90360 | 68.85360 | 40108 ft | 466 kts | 181° |
| 2026-04-26 14:04 | 40.83902 | 68.86071 | 40103 ft | 466 kts | 181° |
| 2026-04-26 14:05 | 40.77483 | 68.86769 | 40100 ft | 466 kts | 181° |
| 2026-04-26 14:05 | 40.71008 | 68.87484 | 40102 ft | 466 kts | 181° |
| 2026-04-26 14:06 | 40.64545 | 68.88196 | 40105 ft | 466 kts | 181° |
| 2026-04-26 14:06 | 40.58065 | 68.88904 | 40107 ft | 467 kts | 181° |
| 2026-04-26 14:07 | 40.51573 | 68.89613 | 40116 ft | 468 kts | 181° |
| 2026-04-26 14:07 | 40.45102 | 68.90323 | 40117 ft | 468 kts | 181° |
| 2026-04-26 14:08 | 40.38617 | 68.91035 | 40120 ft | 468 kts | 181° |
| 2026-04-26 14:08 | 40.32122 | 68.91747 | 40122 ft | 468 kts | 181° |
| 2026-04-26 14:09 | 40.25624 | 68.92458 | 40130 ft | 469 kts | 181° |
| 2026-04-26 14:09 | 40.19124 | 68.93168 | 40133 ft | 469 kts | 182° |
| 2026-04-26 14:10 | 40.12624 | 68.93877 | 40150 ft | 465 kts | 182° |
| 2026-04-26 14:10 | 40.09443 | 68.94231 | 40151 ft | 453 kts | 182° |
| 2026-04-26 14:10 | 40.06340 | 68.94506 | 40173 ft | 443 kts | 185° |
| 2026-04-26 14:11 | 39.97199 | 68.93989 | 39206 ft | 429 kts | 191° |
| 2026-04-26 14:11 | 39.94242 | 68.93692 | 38668 ft | 424 kts | 191° |
| 2026-04-26 14:11 | 39.91292 | 68.93398 | 38103 ft | 425 kts | 191° |
| 2026-04-26 14:12 | 39.88381 | 68.93119 | 37618 ft | 426 kts | 190° |
| 2026-04-26 14:12 | 39.85414 | 68.92848 | 37115 ft | 429 kts | 190° |
| 2026-04-26 14:12 | 39.82430 | 68.92586 | 36617 ft | 431 kts | 189° |
| 2026-04-26 14:12 | 39.79431 | 68.92330 | 36126 ft | 431 kts | 189° |
| 2026-04-26 14:13 | 39.73433 | 68.91828 | 35058 ft | 433 kts | 189° |
| 2026-04-26 14:13 | 39.70420 | 68.91577 | 34542 ft | 435 kts | 189° |
| 2026-04-26 14:13 | 39.67395 | 68.91324 | 33950 ft | 436 kts | 188° |
| 2026-04-26 14:14 | 39.64356 | 68.91070 | 33369 ft | 439 kts | 188° |
| 2026-04-26 14:14 | 39.61293 | 68.90812 | 32810 ft | 443 kts | 188° |
| 2026-04-26 14:14 | 39.58215 | 68.90554 | 32244 ft | 444 kts | 188° |
| 2026-04-26 14:14 | 39.55122 | 68.90291 | 31691 ft | 447 kts | 188° |
| 2026-04-26 14:15 | 39.52010 | 68.90019 | 31099 ft | 450 kts | 188° |
| 2026-04-26 14:15 | 39.48876 | 68.89739 | 30502 ft | 453 kts | 187° |
| 2026-04-26 14:15 | 39.45717 | 68.89457 | 29838 ft | 457 kts | 187° |
| 2026-04-26 14:15 | 39.42577 | 68.89177 | 29198 ft | 459 kts | 187° |
| 2026-04-26 14:16 | 39.39384 | 68.88893 | 28559 ft | 461 kts | 186° |
| 2026-04-26 14:16 | 39.36180 | 68.88610 | 27954 ft | 461 kts | 186° |
| 2026-04-26 14:16 | 39.32973 | 68.88334 | 27349 ft | 463 kts | 186° |
| 2026-04-26 14:16 | 39.29754 | 68.88074 | 26741 ft | 464 kts | 186° |
| 2026-04-26 14:17 | 39.26519 | 68.87823 | 26123 ft | 466 kts | 185° |
| 2026-04-26 14:17 | 39.23271 | 68.87576 | 25518 ft | 468 kts | 185° |
| 2026-04-26 14:17 | 39.20013 | 68.87329 | 24890 ft | 470 kts | 185° |
| 2026-04-26 14:17 | 39.16755 | 68.87081 | 24254 ft | 467 kts | 185° |
| 2026-04-26 14:18 | 39.13518 | 68.86835 | 23579 ft | 464 kts | 185° |
| 2026-04-26 14:18 | 39.10308 | 68.86590 | 22864 ft | 459 kts | 185° |
| 2026-04-26 14:18 | 39.07137 | 68.86348 | 22213 ft | 454 kts | 184° |
| 2026-04-26 14:18 | 39.03998 | 68.86107 | 21588 ft | 449 kts | 184° |
| 2026-04-26 14:19 | 39.00894 | 68.85888 | 20980 ft | 445 kts | 184° |
| 2026-04-26 14:19 | 38.97820 | 68.85666 | 20384 ft | 440 kts | 185° |
| 2026-04-26 14:19 | 38.94782 | 68.85428 | 19748 ft | 435 kts | 184° |
| 2026-04-26 14:19 | 38.91773 | 68.85187 | 19317 ft | 432 kts | 184° |
| 2026-04-26 14:20 | 38.88784 | 68.84950 | 18909 ft | 428 kts | 184° |
| 2026-04-26 14:20 | 38.85821 | 68.84714 | 18499 ft | 426 kts | 184° |
| 2026-04-26 14:20 | 38.82872 | 68.84423 | 17904 ft | 422 kts | 185° |
| 2026-04-26 14:20 | 38.79958 | 68.84080 | 17043 ft | 418 kts | 185° |
| 2026-04-26 14:21 | 38.77079 | 68.83713 | 16207 ft | 414 kts | 186° |
| 2026-04-26 14:21 | 38.74226 | 68.83341 | 15540 ft | 411 kts | 185° |
| 2026-04-26 14:21 | 38.71386 | 68.82970 | 14946 ft | 409 kts | 185° |
| 2026-04-26 14:21 | 38.68560 | 68.82606 | 14382 ft | 407 kts | 185° |
| 2026-04-26 14:22 | 38.65750 | 68.82243 | 13727 ft | 405 kts | 185° |
| 2026-04-26 14:22 | 38.62987 | 68.81625 | 13124 ft | 403 kts | 192° |
| 2026-04-26 14:22 | 38.60289 | 68.80675 | 12577 ft | 401 kts | 196° |
| 2026-04-26 14:22 | 38.57648 | 68.79587 | 12044 ft | 398 kts | 197° |
| 2026-04-26 14:23 | 38.55032 | 68.78462 | 11517 ft | 395 kts | 198° |
| 2026-04-26 14:23 | 38.52437 | 68.77336 | 11351 ft | 393 kts | 199° |
| 2026-04-26 14:23 | 38.49958 | 68.75983 | 11095 ft | 393 kts | 207° |
| 2026-04-26 14:23 | 38.47760 | 68.73919 | 10766 ft | 394 kts | 225° |
| 2026-04-26 14:24 | 38.46163 | 68.71036 | 10626 ft | 394 kts | 244° |
| 2026-04-26 14:24 | 38.45393 | 68.67698 | 10550 ft | 395 kts | 262° |
| 2026-04-26 14:24 | 38.45242 | 68.64203 | 10492 ft | 395 kts | 270° |
| 2026-04-26 14:24 | 38.45326 | 68.60754 | 10247 ft | 393 kts | 272° |
| 2026-04-26 14:25 | 38.45454 | 68.57290 | 9706 ft | 383 kts | 272° |
| 2026-04-26 14:25 | 38.45565 | 68.53962 | 9205 ft | 365 kts | 273° |
| 2026-04-26 14:25 | 38.46045 | 68.50878 | 8669 ft | 351 kts | 292° |
| 2026-04-26 14:25 | 38.47406 | 68.48366 | 8041 ft | 342 kts | 320° |
| 2026-04-26 14:26 | 38.49411 | 68.46887 | 7653 ft | 328 kts | 342° |
| 2026-04-26 14:26 | 38.51605 | 68.46560 | 7301 ft | 313 kts | 8° |
| 2026-04-26 14:26 | 38.53564 | 68.47531 | 6986 ft | 293 kts | 37° |
| 2026-04-26 14:26 | 38.54762 | 68.49452 | 6699 ft | 266 kts | 68° |
| 2026-04-26 14:27 | 38.55019 | 68.51632 | 6380 ft | 235 kts | 94° |
| 2026-04-26 14:27 | 38.54807 | 68.53531 | 6213 ft | 205 kts | 99° |
| 2026-04-26 14:27 | 38.54635 | 68.55322 | 5992 ft | 201 kts | 95° |
| 2026-04-26 14:27 | 38.54552 | 68.57087 | 5597 ft | 198 kts | 92° |
| 2026-04-26 14:28 | 38.54502 | 68.58839 | 5231 ft | 197 kts | 91° |
| 2026-04-26 14:28 | 38.54468 | 68.60549 | 4904 ft | 182 kts | 90° |
| 2026-04-26 14:28 | 38.54447 | 68.62072 | 4629 ft | 167 kts | 90° |
| 2026-04-26 14:28 | 38.54434 | 68.63544 | 4435 ft | 165 kts | 89° |
| 2026-04-26 14:29 | 38.54425 | 68.65008 | 4410 ft | 165 kts | 89° |
| 2026-04-26 14:29 | 38.54418 | 68.66480 | 4415 ft | 165 kts | 89° |
| 2026-04-26 14:29 | 38.54411 | 68.67944 | 4413 ft | 165 kts | 88° |
| 2026-04-26 14:29 | 38.54408 | 68.69416 | 4315 ft | 167 kts | 89° |
| 2026-04-26 14:30 | 38.54403 | 68.70872 | 4074 ft | 160 kts | 89° |
| 2026-04-26 14:30 | 38.54398 | 68.72277 | 3864 ft | 157 kts | 89° |
| 2026-04-26 14:30 | 38.54395 | 68.73662 | 3649 ft | 156 kts | 88° |
| 2026-04-26 14:30 | 38.54391 | 68.75032 | 3457 ft | 156 kts | 88° |
| 2026-04-26 14:31 | 38.54389 | 68.76432 | 3255 ft | 155 kts | 89° |
| 2026-04-26 14:31 | 38.54385 | 68.77799 | 3048 ft | 155 kts | 90° |
| 2026-04-26 14:31 | 38.54380 | 68.79179 | 2856 ft | 155 kts | 90° |
| 2026-04-26 14:31 | 38.54378 | 68.80565 | 2643 ft | 155 kts | 90° |
| 2026-04-26 14:32 | 38.54375 | 68.81627 | 2591 ft | 107 kts | 90° |
| 2026-04-26 14:32 | 38.54370 | 68.82347 | 2582 ft | 72 kts | 90° |
| 2026-04-26 14:32 | 38.54365 | 68.82873 | 2578 ft | 47 kts | 91° |
| 2026-04-26 14:32 | 38.54362 | 68.83171 | 2578 ft | 26 kts | 91° |
| 2026-04-26 14:33 | 38.54392 | 68.83285 | 2573 ft | 7 kts | 37° |
| 2026-04-26 14:33 | 38.54412 | 68.83294 | 2576 ft | 2 kts | 8° |
| 2026-04-26 14:33 | 38.54437 | 68.83293 | 2575 ft | 6 kts | 0° |
| 2026-04-26 14:33 | 38.54491 | 68.83294 | 2575 ft | 10 kts | 0° |
| 2026-04-26 14:34 | 38.54571 | 68.83294 | 2573 ft | 13 kts | 360° |
| 2026-04-26 14:34 | 38.54641 | 68.83277 | 2575 ft | 6 kts | 330° |
| 2026-04-26 14:34 | 38.54672 | 68.83234 | 2571 ft | 7 kts | 302° |
| 2026-04-26 14:34 | 38.54688 | 68.83163 | 2572 ft | 9 kts | 275° |
| 2026-04-26 14:35 | 38.54691 | 68.83074 | 2579 ft | 11 kts | 271° |
| 2026-04-26 14:35 | 38.54692 | 68.82970 | 2581 ft | 13 kts | 270° |
| 2026-04-26 14:35 | 38.54691 | 68.82850 | 2582 ft | 14 kts | 269° |
| 2026-04-26 14:35 | 38.54694 | 68.82774 | 2583 ft | 7 kts | 283° |
| 2026-04-26 14:36 | 38.54703 | 68.82756 | 2576 ft | 1 kts | 317° |
| 2026-04-26 14:36 | 38.54716 | 68.82745 | 2576 ft | 3 kts | 329° |
| 2026-04-26 14:36 | 38.54732 | 68.82742 | 2576 ft | 2 kts | 0° |
| 2026-04-26 14:36 | 38.54746 | 68.82743 | 2575 ft | 0 kts | 0° |